^^
Datos históricos de la estación: Murcia-Puente Tocinos
Diario Informe para Mayo 3, 2019 Unidades:  Ambas    Ingés   Métrico
Diario Semanal Mensual Anual
  Máxima: Mínima: Promedio:
Temperatura: 87.8 °F /  31 °C 65.7 °F /  18.7 °C 74.5 °F /  23.6 °C
Punto de rocio: 63.7 °F /  17.6 °C 45.1 °F /  7.3 °C 51.3 °F /  10.7 °C
Humedad: 78% 23% 47%
Velocidad viento: 10mph /  16.1km/h - 4.5mph /  7.3km/h
Racha viento: 20mph /  32.2km/h - -
Viento- - SO
Presión: 30 in /  1016.7 hPa 29.9 in /  1012.9 hPa -
Precipitación: 0 in /  0.0 mm    
 
 
Tabla de datos para Mayo 3, 2019
Hora Temperatura Punto de rocio Presión Viento Velocidad viento Racha viento Humedad Intensidad lluvia(por hora) Nubes
00:04 71.4 °F /  21.9 °C 63.5 °F /  17.5 °C 30in /  1015.3hPa OSO 1.4mph /  2.2km/h 3.6mph /  5.8km/h 76% 0in /  0.0mm
00:09 71.2 °F /  21.8 °C 63.7 °F /  17.6 °C 30in /  1015.3hPa OSO 1.4mph /  2.3km/h 4mph /  6.4km/h 76.7% 0in /  0.0mm
00:14 71.2 °F /  21.8 °C 63.7 °F /  17.6 °C 30in /  1015.3hPa SO 1.8mph /  2.9km/h 4mph /  6.4km/h 77% 0in /  0.0mm
00:19 71.2 °F /  21.8 °C 63.7 °F /  17.6 °C 30in /  1015.3hPa SO 1.6mph /  2.6km/h 2.3mph /  3.7km/h 77% 0in /  0.0mm
00:24 71.2 °F /  21.8 °C 63.7 °F /  17.6 °C 30in /  1015.3hPa Calm   2.3mph /  3.7km/h 77% 0in /  0.0mm
00:29 71.1 °F /  21.7 °C 63.1 °F /  17.3 °C 30in /  1015.3hPa Calm   2.9mph /  4.7km/h 76.3% 0in /  0.0mm
00:34 71.1 °F /  21.7 °C 62.6 °F /  17 °C 30in /  1015.3hPa Calm   3mph /  4.8km/h 74.6% 0in /  0.0mm
00:39 70.9 °F /  21.6 °C 62.8 °F /  17.1 °C 30in /  1015.2hPa Sur 0.2mph /  0.3km/h 2.4mph /  3.9km/h 75.4% 0in /  0.0mm
00:44 70.7 °F /  21.5 °C 61 °F /  16.1 °C 30in /  1015.2hPa Sur 1.4mph /  2.2km/h 5.2mph /  8.4km/h 71.5% 0in /  0.0mm
00:49 70.5 °F /  21.4 °C 59.9 °F /  15.5 °C 30in /  1015.3hPa Sur 1.4mph /  2.3km/h 5mph /  8km/h 69% 0in /  0.0mm
00:54 70.5 °F /  21.4 °C 60.3 °F /  15.7 °C 30in /  1015.3hPa SSO 2mph /  3.2km/h 5mph /  8km/h 70% 0in /  0.0mm
00:59 70.5 °F /  21.4 °C 61.7 °F /  16.5 °C 30in /  1015.3hPa NNE 2mph /  3.2km/h 4mph /  6.4km/h 73.6% 0in /  0.0mm
01:04 70.3 °F /  21.3 °C 61.7 °F /  16.5 °C 30in /  1015.3hPa NNE 2mph /  3.2km/h 4mph /  6.4km/h 74% 0in /  0.0mm
01:09 70.2 °F /  21.2 °C 62.2 °F /  16.8 °C 30in /  1015.2hPa NO 2mph /  3.2km/h 3.5mph /  5.6km/h 75.9% 0in /  0.0mm
01:14 70 °F /  21.1 °C 62.6 °F /  17 °C 30in /  1015.2hPa NO 1.8mph /  2.9km/h 3.6mph /  5.8km/h 77.5% 0in /  0.0mm
01:19 70 °F /  21.1 °C 62.8 °F /  17.1 °C 30in /  1015.2hPa NE 1.8mph /  2.9km/h 4mph /  6.4km/h 78% 0in /  0.0mm
01:24 69.8 °F /  21 °C 62.6 °F /  17 °C 30in /  1015.2hPa Este 1.8mph /  2.9km/h 3.5mph /  5.6km/h 77.9% 0in /  0.0mm
01:29 69.4 °F /  20.8 °C 61.2 °F /  16.2 °C 30in /  1015.2hPa Sur 1.8mph /  2.9km/h 3.1mph /  5km/h 74.7% 0in /  0.0mm
01:34 69.4 °F /  20.8 °C 60.4 °F /  15.8 °C 30in /  1015.2hPa Sur 1.8mph /  2.9km/h 3.6mph /  5.8km/h 73% 0in /  0.0mm
01:39 69.3 °F /  20.7 °C 57.7 °F /  14.3 °C 30in /  1015.1hPa Sur 1.9mph /  3.1km/h 5.2mph /  8.4km/h 66.9% 0in /  0.0mm
01:44 69.3 °F /  20.7 °C 57.4 °F /  14.1 °C 30in /  1015.1hPa Sur 2.9mph /  4.7km/h 5.9mph /  9.5km/h 66% 0in /  0.0mm
01:49 69.3 °F /  20.7 °C 57.2 °F /  14 °C 30in /  1015.1hPa SSO 3mph /  4.9km/h 6.9mph /  11.1km/h 65.6% 0in /  0.0mm
01:54 69.4 °F /  20.8 °C 57 °F /  13.9 °C 30in /  1015.0hPa SSO 4.3mph /  6.9km/h 7mph /  11.3km/h 64.6% 0in /  0.0mm
01:59 69.4 °F /  20.8 °C 56.1 °F /  13.4 °C 30in /  1015.0hPa SSE 4.3mph /  6.9km/h 7.4mph /  11.9km/h 62.6% 0in /  0.0mm
02:04 69.3 °F /  20.7 °C 55.2 °F /  12.9 °C 30in /  1015.0hPa SSE 4.3mph /  6.9km/h 8.1mph /  13km/h 61% 0in /  0.0mm
02:09 68.7 °F /  20.4 °C 54.3 °F /  12.4 °C 30in /  1015.0hPa SSE 4.4mph /  7.1km/h 9.2mph /  14.8km/h 60.2% 0in /  0.0mm
02:14 68.4 °F /  20.2 °C 54 °F /  12.2 °C 30in /  1015.0hPa SSE 5.4mph /  8.7km/h 9.2mph /  14.8km/h 60% 0in /  0.0mm
02:19 68.2 °F /  20.1 °C 53.8 °F /  12.1 °C 30in /  1015.1hPa Sur 5.3mph /  8.6km/h 9mph /  14.5km/h 60% 0in /  0.0mm
02:24 68.2 °F /  20.1 °C 53.1 °F /  11.7 °C 30in /  1015.1hPa SSO 4.7mph /  7.6km/h 7mph /  11.3km/h 58.6% 0in /  0.0mm
02:29 68.4 °F /  20.2 °C 52.9 °F /  11.6 °C 30in /  1015.1hPa SSO 4.7mph /  7.5km/h 7mph /  11.3km/h 58% 0in /  0.0mm
02:34 68.5 °F /  20.3 °C 53.1 °F /  11.7 °C 30in /  1015.1hPa SSO 4.3mph /  6.9km/h 6mph /  9.7km/h 58% 0in /  0.0mm
02:39 68.5 °F /  20.3 °C 53.2 °F /  11.8 °C 30in /  1015.1hPa SSO 4.2mph /  6.7km/h 5.8mph /  9.3km/h 58% 0in /  0.0mm
02:44 68.7 °F /  20.4 °C 53.4 °F /  11.9 °C 30in /  1015.1hPa SO 3.1mph /  5km/h 6.2mph /  10km/h 58.3% 0in /  0.0mm
02:49 68.7 °F /  20.4 °C 53.6 °F /  12 °C 30in /  1015.1hPa OSO 3.1mph /  5km/h 6mph /  9.7km/h 58.3% 0in /  0.0mm
02:54 68.7 °F /  20.4 °C 53.4 °F /  11.9 °C 30in /  1015.1hPa OSO 3.1mph /  5km/h 6mph /  9.7km/h 58% 0in /  0.0mm
02:59 68.7 °F /  20.4 °C 52.7 °F /  11.5 °C 30in /  1015.1hPa SO 3.2mph /  5.1km/h 6mph /  9.7km/h 56.7% 0in /  0.0mm
03:04 68.7 °F /  20.4 °C 51.8 °F /  11 °C 30in /  1015.1hPa SSO 3.6mph /  5.8km/h 6mph /  9.7km/h 54.8% 0in /  0.0mm
03:09 68.7 °F /  20.4 °C 51.1 °F /  10.6 °C 30in /  1015.0hPa SSO 3.7mph /  5.9km/h 7.4mph /  11.9km/h 53.2% 0in /  0.0mm
03:14 68.9 °F /  20.5 °C 50.5 °F /  10.3 °C 30in /  1015.0hPa SSO 4mph /  6.4km/h 7.4mph /  11.9km/h 52.1% 0in /  0.0mm
03:19 68.9 °F /  20.5 °C 50.5 °F /  10.3 °C 30in /  1015.0hPa SO 4mph /  6.5km/h 7mph /  11.3km/h 52% 0in /  0.0mm
03:24 68.9 °F /  20.5 °C 50.7 °F /  10.4 °C 30in /  1014.9hPa SO 4.3mph /  6.9km/h 6.9mph /  11.1km/h 52.3% 0in /  0.0mm
03:29 68.7 °F /  20.4 °C 50.9 °F /  10.5 °C 30in /  1014.9hPa SSO 4.3mph /  6.9km/h 7mph /  11.3km/h 53% 0in /  0.0mm
03:34 68.7 °F /  20.4 °C 50.9 °F /  10.5 °C 30in /  1014.9hPa SSO 4mph /  6.5km/h 6mph /  9.7km/h 53% 0in /  0.0mm
03:39 68.7 °F /  20.4 °C 50.9 °F /  10.5 °C 30in /  1014.8hPa SSO 4mph /  6.4km/h 6.2mph /  10km/h 53% 0in /  0.0mm
03:44 68.7 °F /  20.4 °C 51.4 °F /  10.8 °C 30in /  1014.8hPa SSO 3.6mph /  5.8km/h 6.9mph /  11.1km/h 54% 0in /  0.0mm
03:49 68.7 °F /  20.4 °C 51.4 °F /  10.8 °C 30in /  1014.8hPa SSO 3.7mph /  6km/h 7mph /  11.3km/h 54% 0in /  0.0mm
03:54 68.7 °F /  20.4 °C 51.8 °F /  11 °C 30in /  1014.8hPa SSO 4.7mph /  7.6km/h 7mph /  11.3km/h 54.8% 0in /  0.0mm
03:59 68.7 °F /  20.4 °C 52.3 °F /  11.3 °C 30in /  1014.8hPa SSO 4.7mph /  7.6km/h 7mph /  11.3km/h 56% 0in /  0.0mm
04:04 68.7 °F /  20.4 °C 52.7 °F /  11.5 °C 30in /  1014.9hPa SO 4.7mph /  7.6km/h 7mph /  11.3km/h 56.7% 0in /  0.0mm
04:09 68.7 °F /  20.4 °C 53.8 °F /  12.1 °C 30in /  1014.9hPa SO 4.6mph /  7.4km/h 6.2mph /  10km/h 59.1% 0in /  0.0mm
04:14 68.5 °F /  20.3 °C 54.5 °F /  12.5 °C 30in /  1014.9hPa SSO 4mph /  6.5km/h 6.9mph /  11.1km/h 60.8% 0in /  0.0mm
04:19 68.4 °F /  20.2 °C 54.5 °F /  12.5 °C 30in /  1014.9hPa SSO 4.1mph /  6.6km/h 8.1mph /  13km/h 61.2% 0in /  0.0mm
04:24 68.4 °F /  20.2 °C 54.3 °F /  12.4 °C 30in /  1014.8hPa SO 4.7mph /  7.6km/h 8mph /  12.9km/h 60.7% 0in /  0.0mm
04:29 68.4 °F /  20.2 °C 53.6 °F /  12 °C 30in /  1014.8hPa SSO 4.6mph /  7.4km/h 6.9mph /  11.1km/h 59% 0in /  0.0mm
04:34 68.5 °F /  20.3 °C 52.2 °F /  11.2 °C 30in /  1014.8hPa SSO 4mph /  6.5km/h 7mph /  11.3km/h 55.9% 0in /  0.0mm
04:39 68.9 °F /  20.5 °C 49.6 °F /  9.8 °C 30in /  1014.7hPa SO 4.1mph /  6.6km/h 7.4mph /  11.9km/h 50.4% 0in /  0.0mm
04:44 69.3 °F /  20.7 °C 49.6 °F /  9.8 °C 30in /  1014.7hPa SSO 4.7mph /  7.6km/h 7.4mph /  11.9km/h 49.9% 0in /  0.0mm
04:49 69.1 °F /  20.6 °C 49.8 °F /  9.9 °C 30in /  1014.8hPa SO 4.6mph /  7.4km/h 7mph /  11.3km/h 50.3% 0in /  0.0mm
04:54 68.9 °F /  20.5 °C 48.4 °F /  9.1 °C 30in /  1014.8hPa SO 3.6mph /  5.8km/h 6.2mph /  10km/h 47.9% 0in /  0.0mm
04:59 68.9 °F /  20.5 °C 48 °F /  8.9 °C 30in /  1014.8hPa SO 3.7mph /  5.9km/h 7.4mph /  11.9km/h 47.4% 0in /  0.0mm
05:04 69.1 °F /  20.6 °C 47.7 °F /  8.7 °C 30in /  1014.8hPa OSO 4mph /  6.4km/h 10.4mph /  16.7km/h 46.3% 0in /  0.0mm
05:09 69.3 °F /  20.7 °C 47.7 °F /  8.7 °C 30in /  1014.8hPa SO 4.2mph /  6.7km/h 10mph /  16.1km/h 46% 0in /  0.0mm
05:14 69.4 °F /  20.8 °C 48.2 °F /  9 °C 30in /  1014.8hPa SO 5.2mph /  8.4km/h 9.2mph /  14.8km/h 46.7% 0in /  0.0mm
05:19 69.4 °F /  20.8 °C 48.2 °F /  9 °C 30in /  1014.9hPa SO 5.2mph /  8.4km/h 9mph /  14.5km/h 46.7% 0in /  0.0mm
05:24 69.3 °F /  20.7 °C 46.4 °F /  8 °C 30in /  1014.9hPa OSO 5.2mph /  8.4km/h 11.5mph /  18.5km/h 43.9% 0in /  0.0mm
05:29 69.3 °F /  20.7 °C 45.5 °F /  7.5 °C 30in /  1014.9hPa OSO 5.3mph /  8.6km/h 12mph /  19.3km/h 42.5% 0in /  0.0mm
05:34 69.4 °F /  20.8 °C 45.3 °F /  7.4 °C 30in /  1015.0hPa OSO 6.4mph /  10.3km/h 12mph /  19.3km/h 42.1% 0in /  0.0mm
05:39 69.3 °F /  20.7 °C 45.9 °F /  7.7 °C 30in /  1015.0hPa OSO 6.2mph /  10km/h 9mph /  14.5km/h 43% 0in /  0.0mm
05:44 69.3 °F /  20.7 °C 47.1 °F /  8.4 °C 30in /  1015.0hPa SO 4.7mph /  7.6km/h 8mph /  12.9km/h 45.3% 0in /  0.0mm
05:49 69.1 °F /  20.6 °C 50 °F /  10 °C 30in /  1015.0hPa SSO 4.5mph /  7.3km/h 6mph /  9.7km/h 50.9% 0in /  0.0mm
05:54 68.5 °F /  20.3 °C 50.2 °F /  10.1 °C 30in /  1015.0hPa OSO 3.1mph /  5km/h 6.2mph /  10km/h 52% 0in /  0.0mm
05:59 68.2 °F /  20.1 °C 49.6 °F /  9.8 °C 30in /  1015.0hPa SO 3.2mph /  5.1km/h 6mph /  9.7km/h 51.4% 0in /  0.0mm
06:04 67.8 °F /  19.9 °C 50 °F /  10 °C 30in /  1015.1hPa SO 3.6mph /  5.8km/h 6mph /  9.7km/h 52.8% 0in /  0.0mm
06:09 67.6 °F /  19.8 °C 51.1 °F /  10.6 °C 30in /  1015.1hPa SSO 3.5mph /  5.6km/h 5mph /  8km/h 55% 0in /  0.0mm
06:14 67.6 °F /  19.8 °C 50.5 °F /  10.3 °C 30in /  1015.1hPa SO 2.9mph /  4.7km/h 5.9mph /  9.5km/h 54.5% 0in /  0.0mm
06:19 67.5 °F /  19.7 °C 49.1 °F /  9.5 °C 30in /  1015.1hPa SSO 3mph /  4.9km/h 8.5mph /  13.7km/h 51.9% 0in /  0.0mm
06:24 67.3 °F /  19.6 °C 48.6 °F /  9.2 °C 30in /  1015.1hPa SO 4mph /  6.4km/h 9mph /  14.5km/h 51.2% 0in /  0.0mm
06:29 67.3 °F /  19.6 °C 48.6 °F /  9.2 °C 30in /  1015.1hPa SO 3.9mph /  6.3km/h 6mph /  9.7km/h 51% 0in /  0.0mm
06:34 67.3 °F /  19.6 °C 48.7 °F /  9.3 °C 30in /  1015.1hPa OSO 3.1mph /  5km/h 5mph /  8km/h 51.4% 0in /  0.0mm
06:39 67.3 °F /  19.6 °C 48.9 °F /  9.4 °C 30in /  1015.1hPa OSO 3mph /  4.9km/h 5mph /  8km/h 52% 0in /  0.0mm
06:44 67.1 °F /  19.5 °C 48.9 °F /  9.4 °C 30in /  1015.1hPa SO 2.4mph /  3.9km/h 4.6mph /  7.4km/h 52% 0in /  0.0mm
06:49 67.1 °F /  19.5 °C 49.1 °F /  9.5 °C 30in /  1015.2hPa OSO 2.4mph /  3.9km/h 5mph /  8km/h 52.2% 0in /  0.0mm
06:54 66.9 °F /  19.4 °C 49.6 °F /  9.8 °C 30in /  1015.2hPa OSO 2.4mph /  3.9km/h 5mph /  8km/h 53.8% 0in /  0.0mm
06:59 66.7 °F /  19.3 °C 50 °F /  10 °C 30in /  1015.2hPa OSO 2.4mph /  3.8km/h 5mph /  8km/h 54.8% 0in /  0.0mm
07:04 66.6 °F /  19.2 °C 50.2 °F /  10.1 °C 30in /  1015.3hPa SO 2mph /  3.2km/h 5.4mph /  8.7km/h 55.7% 0in /  0.0mm
07:09 66.4 °F /  19.1 °C 49.5 °F /  9.7 °C 30in /  1015.3hPa OSO 2.2mph /  3.5km/h 6mph /  9.7km/h 54.5% 0in /  0.0mm
07:14 66.4 °F /  19.1 °C 49.1 °F /  9.5 °C 30in /  1015.3hPa OSO 3.6mph /  5.8km/h 8.1mph /  13km/h 53.8% 0in /  0.0mm
07:19 66.4 °F /  19.1 °C 49.3 °F /  9.6 °C 30in /  1015.3hPa OSO 3.5mph /  5.7km/h 8mph /  12.9km/h 54.1% 0in /  0.0mm
07:24 66 °F /  18.9 °C 48.9 °F /  9.4 °C 30in /  1015.3hPa SO 3.1mph /  5km/h 6mph /  9.7km/h 54% 0in /  0.0mm
07:29 66 °F /  18.9 °C 48.9 °F /  9.4 °C 30in /  1015.3hPa SO 3.1mph /  5km/h 5.8mph /  9.3km/h 54% 0in /  0.0mm
07:34 66 °F /  18.9 °C 48.9 °F /  9.4 °C 30in /  1015.4hPa SO 3.1mph /  5km/h 6mph /  9.7km/h 54% 0in /  0.0mm
07:39 66 °F /  18.9 °C 48.9 °F /  9.4 °C 30in /  1015.4hPa OSO 3.1mph /  5km/h 5.2mph /  8.4km/h 54% 0in /  0.0mm
07:44 66 °F /  18.9 °C 48.9 °F /  9.4 °C 30in /  1015.4hPa SO 3.1mph /  5km/h 6.9mph /  11.1km/h 54% 0in /  0.0mm
07:49 65.8 °F /  18.8 °C 48.7 °F /  9.3 °C 30in /  1015.5hPa SO 3.2mph /  5.2km/h 8.1mph /  13km/h 54% 0in /  0.0mm
07:54 65.8 °F /  18.8 °C 48.7 °F /  9.3 °C 30in /  1015.5hPa OSO 4.3mph /  6.9km/h 8mph /  12.9km/h 53.9% 0in /  0.0mm
07:59 65.8 °F /  18.8 °C 48.2 °F /  9 °C 30in /  1015.5hPa SO 4.2mph /  6.8km/h 7mph /  11.3km/h 53.1% 0in /  0.0mm
08:04 65.8 °F /  18.8 °C 48.2 °F /  9 °C 30in /  1015.5hPa OSO 3.6mph /  5.8km/h 5mph /  8km/h 53% 0in /  0.0mm
08:09 65.8 °F /  18.8 °C 48.2 °F /  9 °C 30in /  1015.5hPa SO 3.5mph /  5.7km/h 5.2mph /  8.4km/h 53% 0in /  0.0mm
08:14 66 °F /  18.9 °C 48 °F /  8.9 °C 30in /  1015.5hPa SSO 2.9mph /  4.7km/h 5mph /  8km/h 52.3% 0in /  0.0mm
08:19 66 °F /  18.9 °C 47.1 °F /  8.4 °C 30in /  1015.6hPa SSO 2.9mph /  4.7km/h 5.8mph /  9.3km/h 50.5% 0in /  0.0mm
08:24 66.4 °F /  19.1 °C 47.1 °F /  8.4 °C 30in /  1015.6hPa SSO 3.1mph /  5km/h 6mph /  9.7km/h 50% 0in /  0.0mm
08:29 66.4 °F /  19.1 °C 47.1 °F /  8.4 °C 30in /  1015.6hPa SO 3mph /  4.9km/h 5mph /  8km/h 50% 0in /  0.0mm
08:34 66.6 °F /  19.2 °C 47.7 °F /  8.7 °C 30in /  1015.8hPa OSO 2.9mph /  4.7km/h 5mph /  8km/h 50.6% 0in /  0.0mm
08:39 66.6 °F /  19.2 °C 48 °F /  8.9 °C 30in /  1015.8hPa Oeste 2.9mph /  4.6km/h 5mph /  8km/h 51.3% 0in /  0.0mm
08:44 66.2 °F /  19 °C 48 °F /  8.9 °C 30in /  1015.8hPa Oeste 2.4mph /  3.9km/h 6.2mph /  10km/h 52% 0in /  0.0mm
08:49 65.8 °F /  18.8 °C 48 °F /  8.9 °C 30in /  1016.0hPa Oeste 2.5mph /  4.1km/h 6mph /  9.7km/h 52.8% 0in /  0.0mm
08:54 65.7 °F /  18.7 °C 48 °F /  8.9 °C 30in /  1016.0hPa Oeste 3.6mph /  5.8km/h 6.2mph /  10km/h 53% 0in /  0.0mm
08:59 65.7 °F /  18.7 °C 48.2 °F /  9 °C 30in /  1016.0hPa OSO 3.7mph /  5.9km/h 7.4mph /  11.9km/h 53% 0in /  0.0mm
09:04 65.8 °F /  18.8 °C 48.2 °F /  9 °C 30in /  1016.1hPa OSO 4mph /  6.4km/h 7mph /  11.3km/h 53% 0in /  0.0mm
09:09 66 °F /  18.9 °C 48 °F /  8.9 °C 30in /  1016.1hPa SO 3.9mph /  6.2km/h 6mph /  9.7km/h 52.3% 0in /  0.0mm
09:14 66.4 °F /  19.1 °C 48 °F /  8.9 °C 30in /  1016.1hPa SO 2.4mph /  3.9km/h 5mph /  8km/h 51.7% 0in /  0.0mm
09:19 66.6 °F /  19.2 °C 47.8 °F /  8.8 °C 30in /  1016.1hPa SO 2.5mph /  4km/h 5.9mph /  9.5km/h 51% 0in /  0.0mm
09:24 66.7 °F /  19.3 °C 48 °F /  8.9 °C 30in /  1016.1hPa OSO 3.1mph /  5km/h 6mph /  9.7km/h 51% 0in /  0.0mm
09:29 67.1 °F /  19.5 °C 48.2 °F /  9 °C 30in /  1016.1hPa OSO 3.1mph /  5km/h 5mph /  8km/h 50.5% 0in /  0.0mm
09:34 67.5 °F /  19.7 °C 48.2 °F /  9 °C 30in /  1016.3hPa OSO 2.9mph /  4.7km/h 5mph /  8km/h 49.8% 0in /  0.0mm
09:39 68 °F /  20 °C 48.2 °F /  9 °C 30in /  1016.3hPa OSO 2.9mph /  4.7km/h 5.2mph /  8.4km/h 49.1% 0in /  0.0mm
09:44 68.4 °F /  20.2 °C 47.8 °F /  8.8 °C 30in /  1016.3hPa OSO 2.9mph /  4.7km/h 8.1mph /  13km/h 47.7% 0in /  0.0mm
09:49 68.7 °F /  20.4 °C 47.5 °F /  8.6 °C 30in /  1016.5hPa OSO 3mph /  4.8km/h 8.1mph /  13km/h 46.6% 0in /  0.0mm
09:54 69.1 °F /  20.6 °C 46.9 °F /  8.3 °C 30in /  1016.5hPa OSO 3.6mph /  5.8km/h 8.1mph /  13km/h 45.3% 0in /  0.0mm
09:59 69.1 °F /  20.6 °C 47.5 °F /  8.6 °C 30in /  1016.5hPa Oeste 3.9mph /  6.2km/h 8mph /  12.9km/h 46% 0in /  0.0mm
10:04 69.3 °F /  20.7 °C 47.7 °F /  8.7 °C 30in /  1016.6hPa Oeste 5.2mph /  8.4km/h 7mph /  11.3km/h 46% 0in /  0.0mm
10:09 69.3 °F /  20.7 °C 47.7 °F /  8.7 °C 30in /  1016.6hPa Oeste 5mph /  8.1km/h 7mph /  11.3km/h 46% 0in /  0.0mm
10:14 69.6 °F /  20.9 °C 47.8 °F /  8.8 °C 30in /  1016.6hPa Oeste 4mph /  6.5km/h 6mph /  9.7km/h 46% 0in /  0.0mm
10:19 70 °F /  21.1 °C 47.7 °F /  8.7 °C 30in /  1016.6hPa OSO 3.9mph /  6.3km/h 5.9mph /  9.5km/h 44.9% 0in /  0.0mm
10:24 70.3 °F /  21.3 °C 47.1 °F /  8.4 °C 30in /  1016.5hPa Oeste 3.1mph /  5km/h 6.4mph /  10.3km/h 43.5% 0in /  0.0mm
10:29 70.9 °F /  21.6 °C 46.8 °F /  8.2 °C 30in /  1016.5hPa Oeste 3.2mph /  5.2km/h 7.4mph /  11.9km/h 42.3% 0in /  0.0mm
10:34 71.1 °F /  21.7 °C 47.3 °F /  8.5 °C 30in /  1016.5hPa Oeste 4.3mph /  6.9km/h 7.4mph /  11.9km/h 42.6% 0in /  0.0mm
10:39 71.2 °F /  21.8 °C 47.1 °F /  8.4 °C 30in /  1016.5hPa OSO 4.3mph /  6.9km/h 7.4mph /  11.9km/h 42% 0in /  0.0mm
10:44 71.6 °F /  22 °C 47.3 °F /  8.5 °C 30in /  1016.5hPa Oeste 4.3mph /  6.9km/h 7mph /  11.3km/h 42.1% 0in /  0.0mm
10:49 72 °F /  22.2 °C 47.8 °F /  8.8 °C 30in /  1016.6hPa SO 4.2mph /  6.7km/h 6mph /  9.7km/h 42.4% 0in /  0.0mm
10:54 72.3 °F /  22.4 °C 47.7 °F /  8.7 °C 30in /  1016.6hPa OSO 3.1mph /  5km/h 8.1mph /  13km/h 41.4% 0in /  0.0mm
10:59 72.5 °F /  22.5 °C 47.5 °F /  8.6 °C 30in /  1016.6hPa OSO 3.2mph /  5.2km/h 8mph /  12.9km/h 41% 0in /  0.0mm
11:04 72.9 °F /  22.7 °C 47.8 °F /  8.8 °C 30in /  1016.6hPa SSO 4mph /  6.4km/h 8.7mph /  14km/h 41% 0in /  0.0mm
11:09 73 °F /  22.8 °C 47.5 °F /  8.6 °C 30in /  1016.6hPa SO 4.1mph /  6.6km/h 9.2mph /  14.8km/h 40.3% 0in /  0.0mm
11:14 73 °F /  22.8 °C 47.8 °F /  8.8 °C 30in /  1016.6hPa SO 4.7mph /  7.6km/h 9mph /  14.5km/h 40.8% 0in /  0.0mm
11:19 73.4 °F /  23 °C 48.4 °F /  9.1 °C 30in /  1016.7hPa SSO 4.6mph /  7.4km/h 7mph /  11.3km/h 41.3% 0in /  0.0mm
11:24 73.9 °F /  23.3 °C 47.5 °F /  8.6 °C 30in /  1016.7hPa SSO 4mph /  6.5km/h 9.2mph /  14.8km/h 39.2% 0in /  0.0mm
11:29 74.1 °F /  23.4 °C 47.3 °F /  8.5 °C 30in /  1016.7hPa SSO 4.2mph /  6.7km/h 9mph /  14.5km/h 38.5% 0in /  0.0mm
11:34 74.3 °F /  23.5 °C 48 °F /  8.9 °C 30in /  1016.7hPa SO 5.2mph /  8.4km/h 8.1mph /  13km/h 39.3% 0in /  0.0mm
11:39 74.7 °F /  23.7 °C 48.2 °F /  9 °C 30in /  1016.7hPa OSO 5.1mph /  8.2km/h 8.1mph /  13km/h 39% 0in /  0.0mm
11:44 74.8 °F /  23.8 °C 48.2 °F /  9 °C 30in /  1016.7hPa OSO 4.3mph /  6.9km/h 8mph /  12.9km/h 39% 0in /  0.0mm
11:49 75 °F /  23.9 °C 48.6 °F /  9.2 °C 30in /  1016.7hPa OSO 4.3mph /  6.9km/h 7.6mph /  12.2km/h 39.2% 0in /  0.0mm
11:54 75.4 °F /  24.1 °C 48.6 °F /  9.2 °C 30in /  1016.6hPa OSO 4mph /  6.5km/h 10.4mph /  16.7km/h 38.7% 0in /  0.0mm
11:59 75.6 °F /  24.2 °C 48.4 °F /  9.1 °C 30in /  1016.6hPa OSO 4.3mph /  6.9km/h 10mph /  16.1km/h 38.4% 0in /  0.0mm
12:04 75.7 °F /  24.3 °C 48.7 °F /  9.3 °C 30in /  1016.6hPa SO 5.9mph /  9.5km/h 9.7mph /  15.6km/h 38.6% 0in /  0.0mm
12:09 76.3 °F /  24.6 °C 48.2 °F /  9 °C 30in /  1016.5hPa SO 5.8mph /  9.4km/h 10.4mph /  16.7km/h 37.2% 0in /  0.0mm
12:14 76.6 °F /  24.8 °C 48.4 °F /  9.1 °C 30in /  1016.4hPa SO 5.2mph /  8.4km/h 12.3mph /  19.8km/h 37% 0in /  0.0mm
12:19 76.6 °F /  24.8 °C 48.4 °F /  9.1 °C 30in /  1016.4hPa SO 5.3mph /  8.5km/h 13mph /  20.9km/h 37.1% 0in /  0.0mm
12:24 76.8 °F /  24.9 °C 48.6 °F /  9.2 °C 30in /  1016.4hPa OSO 6.2mph /  10km/h 10.4mph /  16.7km/h 36.9% 0in /  0.0mm
12:29 77.2 °F /  25.1 °C 48.7 °F /  9.3 °C 30in /  1016.4hPa OSO 6.2mph /  10km/h 12.5mph /  20.1km/h 36.7% 0in /  0.0mm
12:34 77.7 °F /  25.4 °C 47.1 °F /  8.4 °C 30in /  1016.4hPa Oeste 6.2mph /  10km/h 13.8mph /  22.2km/h 34.1% 0in /  0.0mm
12:39 78.1 °F /  25.6 °C 46.8 °F /  8.2 °C 30in /  1016.1hPa Oeste 6.4mph /  10.3km/h 14mph /  22.5km/h 33.3% 0in /  0.0mm
12:44 78.3 °F /  25.7 °C 46.8 °F /  8.2 °C 30in /  1016.0hPa ONO 8.1mph /  13km/h 14mph /  22.5km/h 33% 0in /  0.0mm
12:49 78.3 °F /  25.7 °C 46.8 °F /  8.2 °C 30in /  1016.0hPa Oeste 8mph /  12.8km/h 13.7mph /  22km/h 33% 0in /  0.0mm
12:54 78.4 °F /  25.8 °C 47.3 °F /  8.5 °C 30in /  1016.0hPa Oeste 6.9mph /  11.1km/h 14mph /  22.5km/h 33.3% 0in /  0.0mm
12:59 79 °F /  26.1 °C 47.5 °F /  8.6 °C 30in /  1015.9hPa Oeste 6.8mph /  10.9km/h 14mph /  22.5km/h 33.2% 0in /  0.0mm
13:04 79 °F /  26.1 °C 47.1 °F /  8.4 °C 30in /  1015.9hPa ONO 6.2mph /  10km/h 13.8mph /  22.2km/h 32.7% 0in /  0.0mm
13:09 79.3 °F /  26.3 °C 46.9 °F /  8.3 °C 30in /  1015.9hPa NO 6.5mph /  10.4km/h 17.3mph /  27.8km/h 32% 0in /  0.0mm
13:14 79.3 °F /  26.3 °C 46.6 °F /  8.1 °C 30in /  1015.8hPa NO 8.7mph /  14km/h 18.5mph /  29.8km/h 31.6% 0in /  0.0mm
13:19 79.3 °F /  26.3 °C 46.6 °F /  8.1 °C 30in /  1015.8hPa NO 8.8mph /  14.1km/h 19mph /  30.6km/h 31.5% 0in /  0.0mm
13:24 79.7 °F /  26.5 °C 46.8 °F /  8.2 °C 30in /  1015.7hPa ONO 9.2mph /  14.8km/h 16.1mph /  25.9km/h 31.6% 0in /  0.0mm
13:29 79.9 °F /  26.6 °C 46.8 °F /  8.2 °C 30in /  1015.6hPa ONO 9.1mph /  14.7km/h 17mph /  27.4km/h 31.3% 0in /  0.0mm
13:34 79.9 °F /  26.6 °C 46.6 °F /  8.1 °C 30in /  1015.6hPa ONO 8.7mph /  14km/h 17.5mph /  28.2km/h 31% 0in /  0.0mm
13:39 79.9 °F /  26.6 °C 46.8 °F /  8.2 °C 30in /  1015.5hPa ONO 8.9mph /  14.3km/h 17.5mph /  28.2km/h 31.4% 0in /  0.0mm
13:44 80.1 °F /  26.7 °C 46.9 °F /  8.3 °C 30in /  1015.5hPa ONO 10mph /  16.1km/h 17mph /  27.4km/h 31.3% 0in /  0.0mm
13:49 80.4 °F /  26.9 °C 46.9 °F /  8.3 °C 30in /  1015.5hPa ONO 9.9mph /  15.9km/h 17mph /  27.4km/h 31% 0in /  0.0mm
13:54 80.8 °F /  27.1 °C 47.1 °F /  8.4 °C 30in /  1015.4hPa ONO 8.7mph /  14km/h 17.3mph /  27.8km/h 30.8% 0in /  0.0mm
13:59 81 °F /  27.2 °C 47.1 °F /  8.4 °C 30in /  1015.3hPa NO 8.7mph /  14km/h 14mph /  22.5km/h 30.6% 0in /  0.0mm
14:04 81.1 °F /  27.3 °C 47.3 °F /  8.5 °C 30in /  1015.3hPa NO 8.7mph /  14km/h 15.9mph /  25.6km/h 30.5% 0in /  0.0mm
14:09 81.7 °F /  27.6 °C 47.3 °F /  8.5 °C 30in /  1015.2hPa NO 8.6mph /  13.8km/h 16.1mph /  25.9km/h 30.2% 0in /  0.0mm
14:14 81.7 °F /  27.6 °C 47.3 °F /  8.5 °C 30in /  1015.1hPa NO 7.6mph /  12.2km/h 15.6mph /  25.1km/h 30% 0in /  0.0mm
14:19 81.9 °F /  27.7 °C 46.9 °F /  8.3 °C 30in /  1015.1hPa ONO 7.8mph /  12.5km/h 17.5mph /  28.2km/h 29.5% 0in /  0.0mm
14:24 82 °F /  27.8 °C 46.9 °F /  8.3 °C 30in /  1015.0hPa NO 9.2mph /  14.8km/h 17.3mph /  27.8km/h 29.2% 0in /  0.0mm
14:29 82.4 °F /  28 °C 46.9 °F /  8.3 °C 30in /  1014.9hPa ONO 9.1mph /  14.7km/h 17.3mph /  27.8km/h 29% 0in /  0.0mm
14:34 82.8 °F /  28.2 °C 46.6 °F /  8.1 °C 30in /  1014.9hPa ONO 8.7mph /  14km/h 19.7mph /  31.7km/h 28.4% 0in /  0.0mm
14:39 82.8 °F /  28.2 °C 46.4 °F /  8 °C 30in /  1014.8hPa ONO 8.9mph /  14.3km/h 20mph /  32.2km/h 28% 0in /  0.0mm
14:44 82.8 °F /  28.2 °C 46.4 °F /  8 °C 30in /  1014.8hPa NO 10mph /  16.1km/h 19.7mph /  31.7km/h 28% 0in /  0.0mm
14:49 82.9 °F /  28.3 °C 46.6 °F /  8.1 °C 30in /  1014.8hPa NO 9.9mph /  16km/h 20mph /  32.2km/h 28.1% 0in /  0.0mm
14:54 83.3 °F /  28.5 °C 46.8 °F /  8.2 °C 30in /  1014.6hPa ONO 9.7mph /  15.6km/h 20mph /  32.2km/h 28% 0in /  0.0mm
14:59 83.5 °F /  28.6 °C 46.4 °F /  8 °C 30in /  1014.5hPa Oeste 9.5mph /  15.3km/h 17.3mph /  27.8km/h 27.5% 0in /  0.0mm
15:04 83.5 °F /  28.6 °C 46 °F /  7.8 °C 30in /  1014.5hPa ONO 8.5mph /  13.7km/h 17mph /  27.4km/h 27% 0in /  0.0mm
15:09 83.7 °F /  28.7 °C 46 °F /  7.8 °C 30in /  1014.4hPa ONO 8.6mph /  13.9km/h 17.8mph /  28.6km/h 27% 0in /  0.0mm
15:14 83.8 °F /  28.8 °C 46.2 °F /  7.9 °C 30in /  1014.3hPa ONO 9.7mph /  15.6km/h 18.4mph /  29.6km/h 27% 0in /  0.0mm
15:19 83.8 °F /  28.8 °C 46.2 °F /  7.9 °C 30in /  1014.3hPa ONO 9.5mph /  15.3km/h 18mph /  29km/h 27% 0in /  0.0mm
15:24 84.2 °F /  29 °C 46 °F /  7.8 °C 30in /  1014.2hPa ONO 8.5mph /  13.7km/h 17.3mph /  27.8km/h 26.5% 0in /  0.0mm
15:29 84.4 °F /  29.1 °C 45.7 °F /  7.6 °C 29.9in /  1014.1hPa ONO 8.5mph /  13.7km/h 16mph /  25.7km/h 26% 0in /  0.0mm
15:34 84.4 °F /  29.1 °C 45.7 °F /  7.6 °C 29.9in /  1014.1hPa ONO 8.5mph /  13.7km/h 17.3mph /  27.8km/h 26% 0in /  0.0mm
15:39 84.4 °F /  29.1 °C 45.9 °F /  7.7 °C 29.9in /  1014.0hPa Oeste 8.5mph /  13.7km/h 17mph /  27.4km/h 26.1% 0in /  0.0mm
15:44 84.6 °F /  29.2 °C 45.7 °F /  7.6 °C 29.9in /  1014.0hPa ONO 8.7mph /  14km/h 16mph /  25.7km/h 25.7% 0in /  0.0mm
15:49 84.7 °F /  29.3 °C 45.5 °F /  7.5 °C 29.9in /  1014.0hPa ONO 8.4mph /  13.6km/h 13.8mph /  22.2km/h 25.5% 0in /  0.0mm
15:54 84.9 °F /  29.4 °C 45.1 °F /  7.3 °C 29.9in /  1014.0hPa Oeste 6.4mph /  10.3km/h 14mph /  22.5km/h 25% 0in /  0.0mm
15:59 84.9 °F /  29.4 °C 45.1 °F /  7.3 °C 29.9in /  1014.0hPa ONO 6.6mph /  10.6km/h 13.8mph /  22.2km/h 25% 0in /  0.0mm
16:04 84.7 °F /  29.3 °C 45.3 °F /  7.4 °C 29.9in /  1014.0hPa Oeste 7.4mph /  11.9km/h 14mph /  22.5km/h 25.3% 0in /  0.0mm
16:09 84.9 °F /  29.4 °C 45.1 °F /  7.3 °C 29.9in /  1013.9hPa ONO 7.3mph /  11.7km/h 15mph /  24.1km/h 25% 0in /  0.0mm
16:14 85.5 °F /  29.7 °C 45.5 °F /  7.5 °C 29.9in /  1013.9hPa Oeste 6.2mph /  10km/h 15mph /  24.1km/h 25% 0in /  0.0mm
16:19 85.6 °F /  29.8 °C 45.9 °F /  7.7 °C 29.9in /  1013.9hPa OSO 6.1mph /  9.8km/h 13.5mph /  21.7km/h 25% 0in /  0.0mm
16:24 86 °F /  30 °C 46 °F /  7.8 °C 29.9in /  1013.8hPa ONO 5.4mph /  8.7km/h 14mph /  22.5km/h 25.1% 0in /  0.0mm
16:29 85.8 °F /  29.9 °C 46.2 °F /  7.9 °C 29.9in /  1013.8hPa ONO 5.7mph /  9.1km/h 14mph /  22.5km/h 25.4% 0in /  0.0mm
16:34 86 °F /  30 °C 46.4 °F /  8 °C 29.9in /  1013.8hPa OSO 7.4mph /  11.9km/h 12mph /  19.3km/h 25.2% 0in /  0.0mm
16:39 86.4 °F /  30.2 °C 46.4 °F /  8 °C 29.9in /  1013.7hPa OSO 7.2mph /  11.6km/h 12mph /  19.3km/h 25% 0in /  0.0mm
16:44 86.4 °F /  30.2 °C 45.9 °F /  7.7 °C 29.9in /  1013.6hPa NO 5.9mph /  9.5km/h 10.7mph /  17.2km/h 24.5% 0in /  0.0mm
16:49 86.4 °F /  30.2 °C 46 °F /  7.8 °C 29.9in /  1013.6hPa ONO 5.8mph /  9.4km/h 11mph /  17.7km/h 24.6% 0in /  0.0mm
16:54 86.4 °F /  30.2 °C 46.4 °F /  8 °C 29.9in /  1013.5hPa ONO 5.4mph /  8.7km/h 12.7mph /  20.4km/h 25% 0in /  0.0mm
16:59 86.5 °F /  30.3 °C 46.4 °F /  8 °C 29.9in /  1013.4hPa Oeste 5.7mph /  9.1km/h 15mph /  24.1km/h 24.8% 0in /  0.0mm
17:04 86.7 °F /  30.4 °C 45.9 °F /  7.7 °C 29.9in /  1013.4hPa Oeste 6.9mph /  11.1km/h 16.1mph /  25.9km/h 24.3% 0in /  0.0mm
17:09 86.7 °F /  30.4 °C 45.9 °F /  7.7 °C 29.9in /  1013.4hPa Oeste 7mph /  11.2km/h 16mph /  25.7km/h 24.2% 0in /  0.0mm
17:14 86.7 °F /  30.4 °C 45.5 °F /  7.5 °C 29.9in /  1013.4hPa ONO 7.4mph /  11.9km/h 12mph /  19.3km/h 24% 0in /  0.0mm
17:19 86.7 °F /  30.4 °C 45.7 °F /  7.6 °C 29.9in /  1013.4hPa Oeste 7.3mph /  11.8km/h 12.7mph /  20.4km/h 24.1% 0in /  0.0mm
17:24 86.7 °F /  30.4 °C 45.7 °F /  7.6 °C 29.9in /  1013.3hPa ONO 6.9mph /  11.1km/h 13mph /  20.9km/h 24% 0in /  0.0mm
17:29 86.9 °F /  30.5 °C 46.4 °F /  8 °C 29.9in /  1013.2hPa Oeste 6.8mph /  10.9km/h 13mph /  20.9km/h 24.6% 0in /  0.0mm
17:34 87.3 °F /  30.7 °C 46.2 °F /  7.9 °C 29.9in /  1013.2hPa Oeste 5.9mph /  9.5km/h 10mph /  16.1km/h 24.1% 0in /  0.0mm
17:39 87.4 °F /  30.8 °C 45.9 °F /  7.7 °C 29.9in /  1013.1hPa OSO 5.7mph /  9.1km/h 9mph /  14.5km/h 23.7% 0in /  0.0mm
17:44 87.8 °F /  31 °C 45.9 °F /  7.7 °C 29.9in /  1013.0hPa OSO 4mph /  6.5km/h 7mph /  11.3km/h 23.5% 0in /  0.0mm
17:49 87.8 °F /  31 °C 45.5 °F /  7.5 °C 29.9in /  1013.0hPa SO 4mph /  6.5km/h 9.2mph /  14.8km/h 23% 0in /  0.0mm
17:54 87.6 °F /  30.9 °C 45.9 °F /  7.7 °C 29.9in /  1012.9hPa SO 4.3mph /  6.9km/h 9mph /  14.5km/h 23.6% 0in /  0.0mm
17:59 87.6 °F /  30.9 °C 45.9 °F /  7.7 °C 29.9in /  1012.9hPa OSO 4.2mph /  6.7km/h 7mph /  11.3km/h 23.5% 0in /  0.0mm
18:04 87.8 °F /  31 °C 46.6 °F /  8.1 °C 29.9in /  1012.9hPa Sur 3.6mph /  5.8km/h 8.1mph /  13km/h 24% 0in /  0.0mm
18:09 87.4 °F /  30.8 °C 46.4 °F /  8 °C 29.9in /  1012.9hPa SSE 3.8mph /  6.1km/h 8.1mph /  13km/h 24.1% 0in /  0.0mm
18:14 87.1 °F /  30.6 °C 46.9 °F /  8.3 °C 29.9in /  1012.9hPa SE 5.2mph /  8.4km/h 8.1mph /  13km/h 25% 0in /  0.0mm
18:19 86.5 °F /  30.3 °C 46.9 °F /  8.3 °C 29.9in /  1012.9hPa SE 5.2mph /  8.4km/h 8.1mph /  13km/h 25.3% 0in /  0.0mm
18:24 86.5 °F /  30.3 °C 47.7 °F /  8.7 °C 29.9in /  1012.9hPa SSE 5.2mph /  8.4km/h 8mph /  12.9km/h 26% 0in /  0.0mm
18:29 86.5 °F /  30.3 °C 47.7 °F /  8.7 °C 29.9in /  1012.9hPa SSO 5.2mph /  8.3km/h 9.2mph /  14.8km/h 26% 0in /  0.0mm
18:34 86 °F /  30 °C 49.8 °F /  9.9 °C 29.9in /  1013.0hPa Sur 4.7mph /  7.6km/h 14.5mph /  23.3km/h 28.7% 0in /  0.0mm
18:39 84.9 °F /  29.4 °C 50.5 °F /  10.3 °C 29.9in /  1013.0hPa Sur 5.1mph /  8.2km/h 15mph /  24.1km/h 30.6% 0in /  0.0mm
18:44 84.2 °F /  29 °C 50.9 °F /  10.5 °C 29.9in /  1013.0hPa Sur 8.1mph /  13km/h 14mph /  22.5km/h 31.6% 0in /  0.0mm
18:49 84 °F /  28.9 °C 50.9 °F /  10.5 °C 29.9in /  1013.0hPa SSO 8.1mph /  13km/h 13mph /  20.9km/h 32% 0in /  0.0mm
18:54 83.8 °F /  28.8 °C 50.7 °F /  10.4 °C 29.9in /  1013.0hPa SSO 8.1mph /  13km/h 16.1mph /  25.9km/h 32% 0in /  0.0mm
18:59 83.5 °F /  28.6 °C 50.4 °F /  10.2 °C 29.9in /  1013.0hPa SSO 8.2mph /  13.2km/h 16.1mph /  25.9km/h 32% 0in /  0.0mm
19:04 82.9 °F /  28.3 °C 50.2 °F /  10.1 °C 29.9in /  1013.0hPa SSO 8.7mph /  14km/h 16mph /  25.7km/h 32% 0in /  0.0mm
19:09 82.9 °F /  28.3 °C 50.7 °F /  10.4 °C 29.9in /  1013.0hPa SO 8.6mph /  13.8km/h 13mph /  20.9km/h 32.9% 0in /  0.0mm
19:14 82.8 °F /  28.2 °C 51.1 °F /  10.6 °C 29.9in /  1013.0hPa SSO 7.6mph /  12.2km/h 13.8mph /  22.2km/h 33.6% 0in /  0.0mm
19:19 82.6 °F /  28.1 °C 51.4 °F /  10.8 °C 29.9in /  1013.2hPa SSO 7.4mph /  11.9km/h 14mph /  22.5km/h 34% 0in /  0.0mm
19:24 82.6 °F /  28.1 °C 51.4 °F /  10.8 °C 29.9in /  1013.2hPa Sur 5.9mph /  9.5km/h 9mph /  14.5km/h 34.1% 0in /  0.0mm
19:29 82.4 °F /  28 °C 51.8 °F /  11 °C 29.9in /  1013.2hPa Sur 5.7mph /  9.1km/h 7.4mph /  11.9km/h 34.7% 0in /  0.0mm
19:34 82 °F /  27.8 °C 51.6 °F /  10.9 °C 29.9in /  1013.4hPa SSO 4mph /  6.5km/h 7mph /  11.3km/h 34.9% 0in /  0.0mm
19:39 81.9 °F /  27.7 °C 51.4 °F /  10.8 °C 29.9in /  1013.4hPa SO 3.9mph /  6.3km/h 6mph /  9.7km/h 35% 0in /  0.0mm
19:44 81.7 °F /  27.6 °C 51.6 °F /  10.9 °C 29.9in /  1013.4hPa SO 2.9mph /  4.7km/h 3.6mph /  5.8km/h 35.4% 0in /  0.0mm
19:49 81.3 °F /  27.4 °C 51.6 °F /  10.9 °C 29.9in /  1013.7hPa NNO 2.8mph /  4.5km/h 4.6mph /  7.4km/h 35.7% 0in /  0.0mm
19:54 81 °F /  27.2 °C 51.6 °F /  10.9 °C 29.9in /  1013.7hPa NNO 2mph /  3.2km/h 5.9mph /  9.5km/h 36.1% 0in /  0.0mm
19:59 80.2 °F /  26.8 °C 51.8 °F /  11 °C 29.9in /  1013.7hPa ONO 2.1mph /  3.4km/h 6mph /  9.7km/h 37.2% 0in /  0.0mm
20:04 79.9 °F /  26.6 °C 52 °F /  11.1 °C 29.9in /  1013.8hPa Oeste 2.9mph /  4.7km/h 6.2mph /  10km/h 38% 0in /  0.0mm
20:09 79.3 °F /  26.3 °C 52.3 °F /  11.3 °C 29.9in /  1013.8hPa Oeste 2.8mph /  4.5km/h 6mph /  9.7km/h 39% 0in /  0.0mm
20:14 79.2 °F /  26.2 °C 52.2 °F /  11.2 °C 29.9in /  1013.8hPa ONO 2mph /  3.2km/h 5mph /  8km/h 39% 0in /  0.0mm
20:19 79.2 °F /  26.2 °C 52.5 °F /  11.4 °C 29.9in /  1013.9hPa ONO 2.1mph /  3.3km/h 4.7mph /  7.6km/h 39.7% 0in /  0.0mm
20:24 79 °F /  26.1 °C 52.7 °F /  11.5 °C 29.9in /  1013.9hPa NO 2.4mph /  3.9km/h 5mph /  8km/h 40% 0in /  0.0mm
20:29 78.6 °F /  25.9 °C 52.7 °F /  11.5 °C 29.9in /  1013.9hPa North 2.4mph /  3.9km/h 5mph /  8km/h 40.6% 0in /  0.0mm
20:34 78.1 °F /  25.6 °C 54 °F /  12.2 °C 30in /  1014.2hPa NNE 2.9mph /  4.7km/h 7.4mph /  11.9km/h 43.1% 0in /  0.0mm
20:39 77.4 °F /  25.2 °C 55 °F /  12.8 °C 30in /  1014.2hPa NNE 3.1mph /  5km/h 8.1mph /  13km/h 46% 0in /  0.0mm
20:44 76.6 °F /  24.8 °C 56.7 °F /  13.7 °C 30in /  1014.2hPa North 4.7mph /  7.5km/h 8mph /  12.9km/h 50.1% 0in /  0.0mm
20:49 76.1 °F /  24.5 °C 57.4 °F /  14.1 °C 30in /  1014.5hPa NO 4.7mph /  7.5km/h 8.5mph /  13.7km/h 52.6% 0in /  0.0mm
20:54 75.4 °F /  24.1 °C 58.8 °F /  14.9 °C 30in /  1014.5hPa NNE 4.3mph /  6.9km/h 10.7mph /  17.2km/h 56.6% 0in /  0.0mm
20:59 74.8 °F /  23.8 °C 59.4 °F /  15.2 °C 30in /  1014.5hPa NNE 4.5mph /  7.3km/h 11mph /  17.7km/h 58.4% 0in /  0.0mm
21:04 74.7 °F /  23.7 °C 59.7 °F /  15.4 °C 30in /  1014.6hPa NNE 5.9mph /  9.5km/h 7.4mph /  11.9km/h 59.7% 0in /  0.0mm
21:09 74.5 °F /  23.6 °C 59.7 °F /  15.4 °C 30in /  1014.6hPa NE 5.6mph /  9km/h 7mph /  11.3km/h 60% 0in /  0.0mm
21:14 74.5 °F /  23.6 °C 59.7 °F /  15.4 °C 30in /  1014.6hPa NE 3.1mph /  5km/h 8.5mph /  13.7km/h 60.2% 0in /  0.0mm
21:19 74.1 °F /  23.4 °C 59.9 °F /  15.5 °C 30in /  1014.7hPa NE 3.2mph /  5.1km/h 9mph /  14.5km/h 61% 0in /  0.0mm
21:24 74.1 °F /  23.4 °C 59.9 °F /  15.5 °C 30in /  1014.7hPa NNE 4mph /  6.4km/h 6mph /  9.7km/h 61.3% 0in /  0.0mm
21:29 73.8 °F /  23.2 °C 60.1 °F /  15.6 °C 30in /  1014.7hPa NNE 3.9mph /  6.3km/h 5.2mph /  8.4km/h 62% 0in /  0.0mm
21:34 73.8 °F /  23.2 °C 60.3 °F /  15.7 °C 30in /  1014.8hPa NNE 3.1mph /  5km/h 5mph /  8km/h 62.9% 0in /  0.0mm
21:39 73.4 °F /  23 °C 60.3 °F /  15.7 °C 30in /  1014.8hPa North 3mph /  4.9km/h 5.4mph /  8.7km/h 63.5% 0in /  0.0mm
21:44 73 °F /  22.8 °C 60.3 °F /  15.7 °C 30in /  1014.8hPa North 2.9mph /  4.7km/h 6mph /  9.7km/h 64% 0in /  0.0mm
21:49 72.9 °F /  22.7 °C 60.4 °F /  15.8 °C 30in /  1014.9hPa North 2.9mph /  4.7km/h 6mph /  9.7km/h 64.9% 0in /  0.0mm
21:54 72.9 °F /  22.7 °C 60.3 °F /  15.7 °C 30in /  1014.9hPa NE 2.9mph /  4.7km/h 6.2mph /  10km/h 65% 0in /  0.0mm
21:59 72.7 °F /  22.6 °C 60.3 °F /  15.7 °C 30in /  1014.9hPa ENE 2.9mph /  4.7km/h 6mph /  9.7km/h 65.3% 0in /  0.0mm
22:04 72.5 °F /  22.5 °C 60.4 °F /  15.8 °C 30in /  1015.1hPa NNE 3.1mph /  5km/h 5mph /  8km/h 66% 0in /  0.0mm
22:09 72.3 °F /  22.4 °C 60.3 °F /  15.7 °C 30in /  1015.1hPa North 3mph /  4.9km/h 5mph /  8km/h 66% 0in /  0.0mm
22:14 72.1 °F /  22.3 °C 60.3 °F /  15.7 °C 30in /  1015.1hPa North 2.4mph /  3.9km/h 5mph /  8km/h 66% 0in /  0.0mm
22:19 72.1 °F /  22.3 °C 60.3 °F /  15.7 °C 30in /  1015.2hPa NNO 2.3mph /  3.7km/h 4.6mph /  7.4km/h 66.1% 0in /  0.0mm
22:24 72 °F /  22.2 °C 60.4 °F /  15.8 °C 30in /  1015.2hPa North 1.8mph /  2.9km/h 5.8mph /  9.3km/h 67% 0in /  0.0mm
22:29 72 °F /  22.2 °C 60.3 °F /  15.7 °C 30in /  1015.2hPa NNE 1.9mph /  3.1km/h 6mph /  9.7km/h 67% 0in /  0.0mm
22:34 71.8 °F /  22.1 °C 60.3 °F /  15.7 °C 30in /  1015.2hPa NE 2.9mph /  4.7km/h 5.2mph /  8.4km/h 67% 0in /  0.0mm
22:39 71.6 °F /  22 °C 60.1 °F /  15.6 °C 30in /  1015.1hPa NE 2.8mph /  4.5km/h 5mph /  8km/h 67% 0in /  0.0mm
22:44 71.4 °F /  21.9 °C 59.9 °F /  15.5 °C 30in /  1015.1hPa NE 2.4mph /  3.9km/h 5mph /  8km/h 67% 0in /  0.0mm
22:49 71.4 °F /  21.9 °C 59.9 °F /  15.5 °C 30in /  1015.3hPa ESE 2.3mph /  3.7km/h 3.6mph /  5.8km/h 66.8% 0in /  0.0mm
22:54 71.4 °F /  21.9 °C 59.5 °F /  15.3 °C 30in /  1015.3hPa ESE 1.4mph /  2.3km/h 4mph /  6.4km/h 66.1% 0in /  0.0mm
22:59 71.4 °F /  21.9 °C 59.9 °F /  15.5 °C 30in /  1015.3hPa North 1.5mph /  2.4km/h 3.5mph /  5.6km/h 67% 0in /  0.0mm
23:04 71.4 °F /  21.9 °C 59.9 °F /  15.5 °C 30in /  1015.3hPa NO 1.8mph /  2.9km/h 3mph /  4.8km/h 67% 0in /  0.0mm
23:09 71.2 °F /  21.8 °C 59.9 °F /  15.5 °C 30in /  1015.3hPa NNO 1.8mph /  2.9km/h 4.6mph /  7.4km/h 67.3% 0in /  0.0mm
23:14 71.1 °F /  21.7 °C 59.5 °F /  15.3 °C 30in /  1015.3hPa Este 1.8mph /  2.9km/h 5.2mph /  8.4km/h 66.7% 0in /  0.0mm
23:19 70.9 °F /  21.6 °C 58.3 °F /  14.6 °C 30in /  1015.4hPa ESE 1.9mph /  3.1km/h 5mph /  8km/h 64.4% 0in /  0.0mm
23:24 70.5 °F /  21.4 °C 57.4 °F /  14.1 °C 30in /  1015.4hPa ESE 2.9mph /  4.7km/h 4mph /  6.4km/h 63% 0in /  0.0mm
23:29 70.5 °F /  21.4 °C 57.2 °F /  14 °C 30in /  1015.4hPa ESE 2.7mph /  4.4km/h 3.6mph /  5.8km/h 62.8% 0in /  0.0mm
23:34 70.5 °F /  21.4 °C 57.4 °F /  14.1 °C 30in /  1015.4hPa SSE 1.4mph /  2.3km/h 4.6mph /  7.4km/h 63.1% 0in /  0.0mm
23:39 70.5 °F /  21.4 °C 58.3 °F /  14.6 °C 30in /  1015.4hPa Sur 1.6mph /  2.5km/h 5.2mph /  8.4km/h 64.9% 0in /  0.0mm
23:44 70.7 °F /  21.5 °C 58.8 °F /  14.9 °C 30in /  1015.4hPa Sur 2.9mph /  4.7km/h 5.8mph /  9.3km/h 66% 0in /  0.0mm
23:49 70.7 °F /  21.5 °C 58.5 °F /  14.7 °C 30in /  1015.4hPa Sur 2.9mph /  4.7km/h 6mph /  9.7km/h 65.2% 0in /  0.0mm
23:54 70.9 °F /  21.6 °C 58.5 °F /  14.7 °C 30in /  1015.4hPa OSO 3.1mph /  5km/h 5mph /  8km/h 65% 0in /  0.0mm
23:59 70.9 °F /  21.6 °C 58.5 °F /  14.7 °C 30in /  1015.4hPa SO 3mph /  4.8km/h 5mph /  8km/h 65% 0in /  0.0mm
Murcia-Puente Tocinos, Espa?a
Compliments of Weather Underground - 3.25 mb

La estación de MeteoMurcia.com, publica sus datos en los siguientes proyectos:

Weather Underground PWS IMURCIAP2 Meteoclimatic www.awekas.at

W3Counter
Web Analytics